createdAt,value
2018-01-21T00:01:05.619Z,97.81
2018-01-21T00:03:34.988Z,97.35
2018-01-21T00:06:04.799Z,96.42
2018-01-21T00:08:34.144Z,96.93
2018-01-21T00:11:03.642Z,93.17
2018-01-21T00:13:33.274Z,92.13
2018-01-21T00:16:02.785Z,90.47
2018-01-21T00:18:32.181Z,90.86
2018-01-21T00:21:01.743Z,90.48
2018-01-21T00:23:31.080Z,91.31
2018-01-21T00:26:00.578Z,91.43
2018-01-21T00:28:30.072Z,90.38
2018-01-21T00:30:59.472Z,89.89
2018-01-21T00:33:29.002Z,89.60
2018-01-21T00:35:58.787Z,88.94
2018-01-21T00:38:28.081Z,88.42
2018-01-21T00:40:57.594Z,88.30
2018-01-21T00:43:27.321Z,88.43
2018-01-21T00:45:56.750Z,88.47
2018-01-21T00:48:26.140Z,89.39
2018-01-21T00:50:55.836Z,89.39
2018-01-21T00:53:26.678Z,88.81
2018-01-21T00:55:56.120Z,90.29
2018-01-21T00:58:25.842Z,90.14
2018-01-21T01:00:55.418Z,91.75
2018-01-21T01:03:24.770Z,94.79
2018-01-21T01:05:54.458Z,99.02
2018-01-21T01:08:23.815Z,99.69
2018-01-21T01:10:53.134Z,100.00
2018-01-21T01:13:22.820Z,100.00
2018-01-21T01:15:52.223Z,100.00
2018-01-21T01:18:21.538Z,100.00
2018-01-21T01:20:51.176Z,100.00
2018-01-21T01:23:21.029Z,100.00
2018-01-21T01:25:50.774Z,100.00
2018-01-21T01:28:21.365Z,100.00
2018-01-21T01:30:50.809Z,100.00
2018-01-21T01:33:21.422Z,100.00
2018-01-21T01:35:51.038Z,100.00
2018-01-21T01:38:21.390Z,100.00
2018-01-21T01:40:50.690Z,100.00
2018-01-21T01:43:20.878Z,100.00
2018-01-21T01:45:50.398Z,100.00
2018-01-21T01:48:19.827Z,100.00
2018-01-21T01:50:49.460Z,100.00
2018-01-21T01:53:18.950Z,100.00
2018-01-21T01:55:48.321Z,100.00
2018-01-21T01:58:18.293Z,100.00
2018-01-21T02:00:47.642Z,100.00
2018-01-21T02:03:16.991Z,100.00
2018-01-21T02:05:46.467Z,100.00
2018-01-21T02:08:16.091Z,100.00
2018-01-21T02:10:45.402Z,100.00
2018-01-21T02:13:15.114Z,100.00
2018-01-21T02:15:44.640Z,100.00
2018-01-21T02:18:13.977Z,100.00
2018-01-21T02:20:43.742Z,100.00
2018-01-21T02:23:13.270Z,100.00
2018-01-21T02:25:42.795Z,100.00
2018-01-21T02:28:12.645Z,100.00
2018-01-21T02:30:42.075Z,100.00
2018-01-21T02:33:11.385Z,100.00
2018-01-21T02:35:41.197Z,100.00
2018-01-21T02:38:10.528Z,100.00
2018-01-21T02:40:39.856Z,100.00
2018-01-21T02:43:09.602Z,100.00
2018-01-21T02:45:38.921Z,100.00
2018-01-21T02:48:08.462Z,100.00
2018-01-21T02:50:38.212Z,100.00
2018-01-21T02:53:07.986Z,100.00
2018-01-21T02:55:37.430Z,100.00
2018-01-21T02:58:07.386Z,100.00
2018-01-21T03:00:36.786Z,100.00
2018-01-21T03:03:06.131Z,100.00
2018-01-21T03:05:35.443Z,100.00
2018-01-21T03:08:04.924Z,100.00
2018-01-21T03:10:34.331Z,100.00
2018-01-21T03:13:03.758Z,100.00
2018-01-21T03:15:33.457Z,100.00
2018-01-21T03:18:02.969Z,100.00
2018-01-21T03:20:32.442Z,100.00
2018-01-21T03:23:02.118Z,100.00
2018-01-21T03:25:31.523Z,100.00
2018-01-21T03:28:00.823Z,100.00
2018-01-21T03:30:30.654Z,100.00
2018-01-21T03:32:59.954Z,100.00
2018-01-21T03:35:29.360Z,100.00
2018-01-21T03:37:58.690Z,100.00
2018-01-21T03:40:28.504Z,100.00
2018-01-21T03:42:58.459Z,100.00
2018-01-21T03:45:28.556Z,100.00
2018-01-21T03:47:58.354Z,100.00
2018-01-21T03:50:27.741Z,100.00
2018-01-21T03:52:57.030Z,100.00
2018-01-21T03:55:26.662Z,100.00
2018-01-21T03:57:56.064Z,100.00
2018-01-21T04:00:25.758Z,100.00
2018-01-21T04:02:55.538Z,100.00
2018-01-21T04:05:24.999Z,100.00
2018-01-21T04:07:54.335Z,100.00
2018-01-21T04:10:24.019Z,100.00
2018-01-21T04:12:53.355Z,100.00
2018-01-21T04:15:22.701Z,100.00
2018-01-21T04:17:52.130Z,100.00
2018-01-21T04:20:21.610Z,100.00
2018-01-21T04:22:51.121Z,100.00
2018-01-21T04:25:20.749Z,100.00
2018-01-21T04:27:50.206Z,100.00
2018-01-21T04:30:19.554Z,100.00
2018-01-21T04:32:48.874Z,100.00
2018-01-21T04:35:18.849Z,100.00
2018-01-21T04:37:48.226Z,100.00
2018-01-21T04:40:17.579Z,100.00
2018-01-21T04:42:46.963Z,100.00
2018-01-21T04:45:16.443Z,100.00
2018-01-21T04:47:45.775Z,100.00
2018-01-21T04:50:15.048Z,100.00
2018-01-21T04:52:44.420Z,100.00
2018-01-21T04:55:13.746Z,100.00
2018-01-21T04:57:43.438Z,100.00
2018-01-21T05:00:12.766Z,100.00
2018-01-21T05:02:42.110Z,100.00
2018-01-21T05:05:11.806Z,100.00
2018-01-21T05:07:41.160Z,100.00
2018-01-21T05:10:10.664Z,100.00
2018-01-21T05:12:40.508Z,100.00
2018-01-21T05:15:10.234Z,100.00
2018-01-21T05:17:39.530Z,100.00
2018-01-21T05:20:09.129Z,100.00
2018-01-21T05:22:38.538Z,100.00
2018-01-21T05:25:07.955Z,100.00
2018-01-21T05:27:37.474Z,100.00
2018-01-21T05:30:07.459Z,100.00
2018-01-21T05:32:36.874Z,100.00
2018-01-21T05:35:06.207Z,100.00
2018-01-21T05:37:35.597Z,100.00
2018-01-21T05:40:04.546Z,100.00
2018-01-21T05:42:34.163Z,100.00
2018-01-21T05:45:03.754Z,100.00
2018-01-21T05:47:33.119Z,100.00
2018-01-21T05:50:02.602Z,100.00
2018-01-21T05:52:31.953Z,100.00
2018-01-21T05:55:01.729Z,100.00
2018-01-21T05:57:31.062Z,100.00
2018-01-21T06:00:00.553Z,100.00
2018-01-21T06:05:03.591Z,100.00
2018-01-21T06:07:33.022Z,100.00
2018-01-21T06:10:03.030Z,100.00
2018-01-21T06:12:32.879Z,100.00
2018-01-21T06:15:02.397Z,100.00
2018-01-21T06:17:31.698Z,100.00
2018-01-21T06:20:01.670Z,100.00
2018-01-21T06:22:32.085Z,100.00
2018-01-21T06:25:01.593Z,100.00
2018-01-21T06:27:33.517Z,100.00
2018-01-21T06:30:03.195Z,100.00
2018-01-21T06:32:32.550Z,100.00
2018-01-21T06:35:01.990Z,100.00
2018-01-21T06:37:31.958Z,100.00
2018-01-21T06:40:01.599Z,100.00
2018-01-21T06:42:31.114Z,100.00
2018-01-21T06:45:00.858Z,100.00
2018-01-21T06:47:30.339Z,100.00
2018-01-21T06:49:59.790Z,100.00
2018-01-21T06:52:29.938Z,100.00
2018-01-21T06:54:59.538Z,100.00
2018-01-21T06:57:29.657Z,100.00
2018-01-21T06:59:59.325Z,100.00
2018-01-21T07:02:29.743Z,100.00
2018-01-21T07:04:59.148Z,100.00
2018-01-21T07:07:29.445Z,100.00
2018-01-21T07:09:58.904Z,100.00
2018-01-21T07:12:29.482Z,100.00
2018-01-21T07:14:59.195Z,100.00
2018-01-21T07:17:28.718Z,100.00
2018-01-21T07:19:58.192Z,100.00
2018-01-21T07:22:27.990Z,100.00
2018-01-21T07:24:57.337Z,100.00
2018-01-21T07:27:28.990Z,100.00
2018-01-21T07:29:58.350Z,100.00
2018-01-21T07:32:27.942Z,100.00
2018-01-21T07:34:57.495Z,100.00
2018-01-21T07:37:27.063Z,100.00
2018-01-21T07:39:56.462Z,100.00
2018-01-21T07:42:34.269Z,100.00
2018-01-21T07:45:09.188Z,100.00
2018-01-21T07:47:40.277Z,100.00
2018-01-21T07:50:12.190Z,100.00
2018-01-21T07:52:41.895Z,100.00
2018-01-21T07:55:11.226Z,100.00
2018-01-21T07:57:41.069Z,100.00
2018-01-21T08:00:14.891Z,100.00
2018-01-21T08:02:44.401Z,100.00
2018-01-21T08:05:14.676Z,100.00
2018-01-21T08:07:45.781Z,100.00
2018-01-21T08:10:15.238Z,100.00
2018-01-21T08:12:45.019Z,100.00
2018-01-21T08:15:14.606Z,100.00
2018-01-21T08:17:44.099Z,100.00
2018-01-21T08:20:13.866Z,100.00
2018-01-21T08:22:43.470Z,100.00
2018-01-21T08:25:13.018Z,100.00
2018-01-21T08:27:42.580Z,100.00
2018-01-21T08:30:11.994Z,100.00
2018-01-21T08:32:41.434Z,100.00
2018-01-21T08:35:16.242Z,100.00
2018-01-21T08:39:53.874Z,100.00
2018-01-21T08:42:25.654Z,100.00
2018-01-21T08:44:55.442Z,100.00
2018-01-21T08:47:28.774Z,100.00
2018-01-21T08:49:58.662Z,100.00
2018-01-21T08:52:29.707Z,100.00
2018-01-21T08:54:59.681Z,100.00
2018-01-21T08:57:32.775Z,100.00
2018-01-21T09:00:04.969Z,100.00
2018-01-21T09:02:34.766Z,100.00
2018-01-21T09:05:04.498Z,100.00
2018-01-21T09:07:33.868Z,100.00
2018-01-21T09:10:03.446Z,100.00
2018-01-21T09:12:33.577Z,100.00
2018-01-21T09:15:03.782Z,100.00
2018-01-21T09:17:35.658Z,100.00
2018-01-21T09:20:06.699Z,100.00
2018-01-21T09:22:36.059Z,100.00
2018-01-21T09:25:05.940Z,100.00
2018-01-21T09:27:35.774Z,100.00
2018-01-21T09:30:05.479Z,100.00
2018-01-21T09:32:34.960Z,98.64
2018-01-21T09:35:06.851Z,100.00
2018-01-21T09:37:36.224Z,98.79
2018-01-21T09:40:05.114Z,100.00
2018-01-21T09:42:34.931Z,100.00
2018-01-21T09:45:04.347Z,100.00
2018-01-21T09:47:34.780Z,100.00
2018-01-21T09:50:08.429Z,100.00
2018-01-21T09:52:42.098Z,100.00
2018-01-21T09:55:11.546Z,100.00
2018-01-21T09:57:41.457Z,100.00
2018-01-21T10:00:11.318Z,100.00
2018-01-21T10:02:40.672Z,100.00
2018-01-21T10:05:10.533Z,100.00
2018-01-21T10:07:39.827Z,100.00
2018-01-21T10:10:09.263Z,98.66
2018-01-21T10:12:38.630Z,98.85
2018-01-21T10:15:08.070Z,99.99
2018-01-21T10:17:37.518Z,99.66
2018-01-21T10:20:07.166Z,99.92
2018-01-21T10:22:36.604Z,99.41
2018-01-21T10:25:06.166Z,98.15
2018-01-21T10:27:35.910Z,97.65
2018-01-21T10:30:05.470Z,98.27
2018-01-21T10:32:34.914Z,97.15
2018-01-21T10:35:04.668Z,97.63
2018-01-21T10:37:34.514Z,97.70
2018-01-21T10:40:05.310Z,96.62
2018-01-21T10:42:35.031Z,96.58
2018-01-21T10:45:04.447Z,97.39
2018-01-21T10:47:34.099Z,96.62
2018-01-21T10:50:03.865Z,96.17
2018-01-21T10:52:33.702Z,95.60
2018-01-21T10:55:03.390Z,94.33
2018-01-21T10:57:33.233Z,94.24
2018-01-21T11:00:03.007Z,93.75
2018-01-21T11:02:32.518Z,93.48
2018-01-21T11:05:02.257Z,93.26
2018-01-21T11:07:32.172Z,93.27
2018-01-21T11:10:01.673Z,94.38
2018-01-21T11:12:31.400Z,93.59
2018-01-21T11:15:05.176Z,92.77
2018-01-21T11:17:35.623Z,93.17
2018-01-21T11:20:05.375Z,92.25
2018-01-21T11:22:34.791Z,92.16
2018-01-21T11:25:04.146Z,91.82
2018-01-21T11:27:33.979Z,91.44
2018-01-21T11:30:03.665Z,90.23
2018-01-21T11:32:33.330Z,91.01
2018-01-21T11:35:03.122Z,91.47
2018-01-21T11:37:32.566Z,91.58
2018-01-21T11:40:02.902Z,91.47
2018-01-21T11:42:32.563Z,90.43
2018-01-21T11:45:02.735Z,89.89
2018-01-21T11:47:33.054Z,90.20
2018-01-21T11:50:03.371Z,90.05
2018-01-21T11:52:32.966Z,91.04
2018-01-21T11:55:03.887Z,90.40
2018-01-21T11:57:33.518Z,90.44
2018-01-21T12:00:03.328Z,91.18
2018-01-21T12:02:33.121Z,90.88
2018-01-21T12:05:03.650Z,91.43
2018-01-21T12:07:33.394Z,91.08
2018-01-21T12:10:03.086Z,91.37
2018-01-21T12:12:33.218Z,90.86
2018-01-21T12:15:03.798Z,91.16
2018-01-21T12:17:33.310Z,91.79
2018-01-21T12:20:03.679Z,91.75
2018-01-21T12:22:33.012Z,91.41
2018-01-21T12:25:03.669Z,91.15
2018-01-21T12:27:33.103Z,91.02
2018-01-21T12:30:02.785Z,91.04
2018-01-21T12:32:32.291Z,91.58
2018-01-21T12:35:02.015Z,91.36
2018-01-21T12:37:31.483Z,91.46
2018-01-21T12:40:01.070Z,90.63
2018-01-21T12:42:30.865Z,90.58
2018-01-21T12:45:00.269Z,90.45
2018-01-21T12:47:30.795Z,90.62
2018-01-21T12:50:00.659Z,89.73
2018-01-21T12:52:30.477Z,90.76
2018-01-21T12:55:00.000Z,89.34
2018-01-21T12:57:30.119Z,89.62
2018-01-21T13:00:00.151Z,90.14
2018-01-21T13:02:30.147Z,89.87
2018-01-21T13:04:59.647Z,91.27
2018-01-21T13:07:28.992Z,91.20
2018-01-21T13:09:59.238Z,90.32
2018-01-21T13:12:28.725Z,90.21
2018-01-21T13:14:58.315Z,89.48
2018-01-21T13:17:31.059Z,89.85
2018-01-21T13:20:00.397Z,91.69
2018-01-21T13:22:30.271Z,90.70
2018-01-21T13:24:59.988Z,90.66
2018-01-21T13:27:29.648Z,90.91
2018-01-21T13:29:59.920Z,92.06
2018-01-21T13:32:33.647Z,91.65
2018-01-21T13:35:03.315Z,92.98
2018-01-21T13:37:32.891Z,94.22
2018-01-21T13:40:03.114Z,92.97
2018-01-21T13:42:32.851Z,91.56
2018-01-21T13:45:02.431Z,90.93
2018-01-21T13:47:32.198Z,90.90
2018-01-21T13:50:01.966Z,91.60
2018-01-21T13:52:32.326Z,90.91
2018-01-21T13:55:02.179Z,91.69
2018-01-21T13:57:31.731Z,93.15
2018-01-21T14:00:01.431Z,91.11
2018-01-21T14:02:31.599Z,93.16
2018-01-21T14:05:00.953Z,90.94
2018-01-21T14:07:34.994Z,91.57
2018-01-21T14:10:05.351Z,91.87
2018-01-21T14:12:35.170Z,91.43
2018-01-21T14:15:05.494Z,91.69
2018-01-21T14:17:35.415Z,91.73
2018-01-21T14:20:05.594Z,91.14
2018-01-21T14:22:36.471Z,90.97
2018-01-21T14:25:06.070Z,91.20
2018-01-21T14:27:35.520Z,92.56
2018-01-21T14:30:05.370Z,91.17
2018-01-21T14:32:35.459Z,92.42
2018-01-21T14:35:04.942Z,91.89
2018-01-21T14:37:34.472Z,92.27
2018-01-21T14:40:04.219Z,91.54
2018-01-21T14:42:33.739Z,91.55
2018-01-21T14:45:03.150Z,91.04
2018-01-21T14:47:33.314Z,91.22
2018-01-21T14:50:02.835Z,89.62
2018-01-21T14:52:32.402Z,90.05
2018-01-21T14:55:02.263Z,90.46
2018-01-21T14:57:31.798Z,90.55
2018-01-21T15:00:01.155Z,90.15
2018-01-21T15:02:31.107Z,89.64
2018-01-21T15:05:00.822Z,91.06
2018-01-21T15:07:30.676Z,89.95
2018-01-21T15:10:00.461Z,90.49
2018-01-21T15:12:30.430Z,90.65
2018-01-21T15:14:59.762Z,89.14
2018-01-21T15:17:29.504Z,90.77
2018-01-21T15:19:58.883Z,89.59
2018-01-21T15:22:30.466Z,89.50
2018-01-21T15:25:00.162Z,88.97
2018-01-21T15:27:29.783Z,90.03
2018-01-21T15:29:59.119Z,89.22
2018-01-21T15:32:30.174Z,89.79
2018-01-21T15:34:59.871Z,89.00
2018-01-21T15:37:29.871Z,88.60
2018-01-21T15:39:59.701Z,88.92
2018-01-21T15:42:29.929Z,88.39
2018-01-21T15:44:59.490Z,87.62
2018-01-21T15:47:31.221Z,88.83
2018-01-21T15:50:00.730Z,88.87
2018-01-21T15:52:31.654Z,88.51
2018-01-21T15:55:01.699Z,88.71
2018-01-21T15:57:32.087Z,89.50
2018-01-21T16:00:01.540Z,88.84
2018-01-21T16:02:31.466Z,89.09
2018-01-21T16:05:00.804Z,88.57
2018-01-21T16:07:30.434Z,89.01
2018-01-21T16:10:00.074Z,87.57
2018-01-21T16:12:30.908Z,88.23
2018-01-21T16:15:00.315Z,88.50
2018-01-21T16:17:30.033Z,88.28
2018-01-21T16:19:59.374Z,87.05
2018-01-21T16:22:28.968Z,87.89
2018-01-21T16:24:58.582Z,88.02
2018-01-21T16:27:30.331Z,88.42
2018-01-21T16:29:59.718Z,87.55
2018-01-21T16:32:29.636Z,86.76
2018-01-21T16:34:59.146Z,86.36
2018-01-21T16:37:37.335Z,86.93
2018-01-21T16:40:08.276Z,87.93
2018-01-21T16:42:37.714Z,87.82
2018-01-21T16:45:07.444Z,87.80
2018-01-21T16:47:37.337Z,87.44
2018-01-21T16:50:06.942Z,86.23
2018-01-21T16:52:37.186Z,89.06
2018-01-21T16:55:06.790Z,89.97
2018-01-21T16:57:36.407Z,89.01
2018-01-21T17:00:06.599Z,88.06
2018-01-21T17:02:36.279Z,87.40
2018-01-21T17:05:09.955Z,86.89
2018-01-21T17:07:39.889Z,87.16
2018-01-21T17:10:09.810Z,86.65
2018-01-21T17:12:39.723Z,87.04
2018-01-21T17:15:09.589Z,86.89
2018-01-21T17:17:39.882Z,86.70
2018-01-21T17:20:10.478Z,86.56
2018-01-21T17:22:40.162Z,86.58
2018-01-21T17:25:10.762Z,86.71
2018-01-21T17:27:41.241Z,86.92
2018-01-21T17:30:10.799Z,86.47
2018-01-21T17:36:13.662Z,86.34
2018-01-21T17:38:43.951Z,86.08
2018-01-21T17:41:13.719Z,86.41
2018-01-21T17:43:44.332Z,86.08
2018-01-21T17:46:14.208Z,84.71
2018-01-21T17:48:43.678Z,85.44
2018-01-21T17:51:14.286Z,85.28
2018-01-21T17:53:44.265Z,84.93
2018-01-21T17:56:15.035Z,85.64
2018-01-21T17:58:44.366Z,85.11
2018-01-21T18:01:14.427Z,86.90
2018-01-21T18:03:44.695Z,85.51
2018-01-21T18:06:14.240Z,85.62
2018-01-21T18:08:45.773Z,86.50
2018-01-21T18:11:15.160Z,86.52
2018-01-21T18:13:44.696Z,85.90
2018-01-21T18:16:14.553Z,85.23
2018-01-21T18:18:44.388Z,86.34
2018-01-21T18:21:13.763Z,86.19
2018-01-21T18:23:44.582Z,85.35
2018-01-21T18:26:14.208Z,85.31
2018-01-21T18:28:43.680Z,85.51
2018-01-21T18:31:14.479Z,85.27
2018-01-21T18:33:44.214Z,84.91
2018-01-21T18:36:13.975Z,84.01
2018-01-21T18:38:44.967Z,84.71
2018-01-21T18:41:14.602Z,84.91
2018-01-21T18:43:53.035Z,85.45
2018-01-21T18:46:30.237Z,85.31
2018-01-21T18:48:59.794Z,85.63
2018-01-21T18:51:30.906Z,84.84
2018-01-21T18:54:00.575Z,84.34
2018-01-21T18:56:30.011Z,85.25
2018-01-21T18:59:00.458Z,84.78
2018-01-21T19:01:30.573Z,83.85
2018-01-21T19:04:00.745Z,83.70
2018-01-21T19:06:30.818Z,84.69
2018-01-21T19:09:00.659Z,85.06
2018-01-21T19:11:30.402Z,84.71
2018-01-21T19:14:01.144Z,84.96
2018-01-21T19:16:30.975Z,84.01
2018-01-21T19:19:00.620Z,84.89
2018-01-21T19:21:31.891Z,86.01
2018-01-21T19:24:01.501Z,86.58
2018-01-21T19:26:31.439Z,87.40
2018-01-21T19:29:02.452Z,88.59
2018-01-21T19:31:31.955Z,88.00
2018-01-21T19:34:01.622Z,86.81
2018-01-21T19:36:32.060Z,87.58
2018-01-21T19:39:01.904Z,86.54
2018-01-21T19:41:31.575Z,86.19
2018-01-21T19:44:01.565Z,86.03
2018-01-21T19:46:31.156Z,86.00
2018-01-21T19:49:00.711Z,85.41
2018-01-21T19:51:30.407Z,85.80
2018-01-21T19:54:00.172Z,85.96
2018-01-21T19:56:30.363Z,85.75
2018-01-21T19:59:00.422Z,85.52
2018-01-21T20:01:30.721Z,85.79
2018-01-21T20:04:00.175Z,85.44
2018-01-21T20:06:30.486Z,85.34
2018-01-21T20:08:59.831Z,85.53
2018-01-21T20:11:32.672Z,85.15
2018-01-21T20:14:02.064Z,85.80
2018-01-21T20:16:31.696Z,85.55
2018-01-21T20:19:01.536Z,85.83
2018-01-21T20:21:31.031Z,85.99
2018-01-21T20:24:01.188Z,86.09
2018-01-21T20:26:31.382Z,85.66
2018-01-21T20:29:01.128Z,85.81
2018-01-21T20:31:30.655Z,85.54
2018-01-21T20:34:00.656Z,84.75
2018-01-21T20:36:30.455Z,85.64
2018-01-21T20:39:00.024Z,85.99
2018-01-21T20:41:30.083Z,85.98
2018-01-21T20:43:59.500Z,85.86
2018-01-21T20:46:33.520Z,86.11
2018-01-21T20:49:06.918Z,85.87
2018-01-21T20:51:41.854Z,85.65
2018-01-21T20:54:42.629Z,84.21
2018-01-21T20:57:13.818Z,85.03
2018-01-21T20:59:43.530Z,84.00
2018-01-21T21:02:13.066Z,85.23
2018-01-21T21:04:42.846Z,85.13
2018-01-21T21:07:12.995Z,85.29
2018-01-21T21:09:44.761Z,85.20
2018-01-21T21:12:15.918Z,84.84
2018-01-21T21:14:46.549Z,84.42
2018-01-21T21:17:17.099Z,84.66
2018-01-21T21:19:47.016Z,84.46
2018-01-21T21:22:17.657Z,85.03
2018-01-21T21:24:47.382Z,85.07
2018-01-21T21:27:16.879Z,84.63
2018-01-21T21:29:50.949Z,85.90
2018-01-21T21:32:20.475Z,86.60
2018-01-21T21:34:50.300Z,86.43
2018-01-21T21:37:19.718Z,86.05
2018-01-21T21:39:49.526Z,84.66
2018-01-21T21:42:19.193Z,84.92
2018-01-21T21:44:48.644Z,84.78
2018-01-21T21:47:18.338Z,85.35
2018-01-21T21:49:48.144Z,86.83
2018-01-21T21:52:17.482Z,89.26
2018-01-21T21:54:47.042Z,89.93
2018-01-21T21:57:16.675Z,88.55
2018-01-21T21:59:46.504Z,88.71
2018-01-21T22:02:15.883Z,86.67
2018-01-21T22:04:45.710Z,87.01
2018-01-21T22:07:15.052Z,85.93
2018-01-21T22:09:44.570Z,85.30
2018-01-21T22:12:14.306Z,86.47
2018-01-21T22:14:43.750Z,86.10
2018-01-21T22:17:13.730Z,86.42
2018-01-21T22:19:43.594Z,86.24
2018-01-21T22:22:13.434Z,86.89
2018-01-21T22:24:42.874Z,85.70
2018-01-21T22:27:12.631Z,86.75
2018-01-21T22:29:42.059Z,86.28
2018-01-21T22:32:11.427Z,86.06
2018-01-21T22:34:41.250Z,85.62
2018-01-21T22:37:10.556Z,86.49
2018-01-21T22:39:40.010Z,86.39
2018-01-21T22:42:09.826Z,86.96
2018-01-21T22:44:39.268Z,85.43
2018-01-21T22:47:08.706Z,85.62
2018-01-21T22:49:38.342Z,85.94
2018-01-21T22:52:07.654Z,86.21
2018-01-21T22:54:36.966Z,86.14
2018-01-21T22:57:06.590Z,86.24
2018-01-21T22:59:36.177Z,85.48
2018-01-21T23:02:05.659Z,85.96
2018-01-21T23:04:35.518Z,85.76
2018-01-21T23:07:07.351Z,85.08
2018-01-21T23:09:37.100Z,83.73
2018-01-21T23:12:07.167Z,84.04
2018-01-21T23:14:37.190Z,84.06
2018-01-21T23:17:07.138Z,84.72
2018-01-21T23:19:36.885Z,86.29
2018-01-21T23:22:06.342Z,85.61
2018-01-21T23:24:35.786Z,86.44
2018-01-21T23:27:05.486Z,86.14
2018-01-21T23:29:35.100Z,85.84
2018-01-21T23:32:04.617Z,86.62
2018-01-21T23:34:34.580Z,88.07
2018-01-21T23:37:03.922Z,87.73
2018-01-21T23:39:33.350Z,85.98
2018-01-21T23:42:03.513Z,85.07
2018-01-21T23:44:32.884Z,85.14
2018-01-21T23:47:02.322Z,85.24
2018-01-21T23:49:32.088Z,84.42
2018-01-21T23:52:01.582Z,84.75
2018-01-21T23:54:30.934Z,84.23
2018-01-21T23:57:00.935Z,84.04
2018-01-21T23:59:31.014Z,83.80
